Quetta Weather



Quetta's Current Weather

Temprature 14.68o few clouds

few clouds

Rain: 0 %

Min Temprature14.68o
Max Temprature14.68o
Humidity24
Wind Speed0.31 m/h
Sun Rise06:11:22
Sun Set18:55:10
Current Time: 09-Apr-2020 03:25:31
Lat/Lon: 30.2, 67.01




Quetta's Geo Location



Quetta's Weather Forecast

Time Overall Temp Min Temp Max Temp Humidity Wind Speed Rain
09-Apr-2020 (Thu)
05:00:00 scattered clouds 14.070 14.070 14.070 23 0.98 m/h 0 %
08:00:00 broken clouds 16.630 16.630 16.630 18 1.85 m/h 0 %
11:00:00 broken clouds 20.460 20.460 20.460 15 3.35 m/h 0 %
14:00:00 scattered clouds 22.110 22.110 22.110 15 6.72 m/h 0 %
17:00:00 scattered clouds 20.730 20.730 20.730 19 7.5 m/h 0 %
20:00:00 clear sky 17.850 17.850 17.850 26 4.44 m/h 0 %
23:00:00 scattered clouds 15.880 15.880 15.880 31 2.77 m/h 0 %
10-Apr-2020 (Fri)
02:00:00 overcast clouds 14.070 14.070 14.070 34 2.24 m/h 0 %
05:00:00 broken clouds 12.630 12.630 12.630 36 2.33 m/h 0 %
08:00:00 few clouds 13.850 13.850 13.850 33 2.21 m/h 0 %
11:00:00 scattered clouds 17.920 17.920 17.920 24 2.09 m/h 0 %
14:00:00 scattered clouds 21.080 21.080 21.080 18 3.21 m/h 0 %
17:00:00 broken clouds 21.470 21.470 21.470 17 2.11 m/h 0 %
20:00:00 overcast clouds 19.740 19.740 19.740 22 2.73 m/h 0 %
23:00:00 overcast clouds 17.840 17.840 17.840 27 2.26 m/h 0 %
11-Apr-2020 (Sat)
02:00:00 scattered clouds 16.270 16.270 16.270 30 1.32 m/h 0 %
05:00:00 broken clouds 14.830 14.830 14.830 33 0.74 m/h 0 %
08:00:00 overcast clouds 17.190 17.190 17.190 27 0.53 m/h 0 %
11:00:00 overcast clouds 20.830 20.830 20.830 21 1.42 m/h 0 %
14:00:00 broken clouds 23.980 23.980 23.980 17 4.55 m/h 0 %
17:00:00 broken clouds 24.080 24.080 24.080 16 6.02 m/h 0 %
20:00:00 overcast clouds 21.340 21.340 21.340 24 1.97 m/h 0 %
23:00:00 overcast clouds 18.800 18.800 18.800 30 0.49 m/h 0 %
12-Apr-2020 (Sun)
02:00:00 scattered clouds 17.000 17.000 17.000 32 0.33 m/h 0 %
05:00:00 few clouds 15.920 15.920 15.920 30 0.66 m/h 0 %
08:00:00 clear sky 20.510 20.510 20.510 19 0.64 m/h 0 %
11:00:00 scattered clouds 24.200 24.200 24.200 15 3.67 m/h 0 %
14:00:00 overcast clouds 25.720 25.720 25.720 14 4.24 m/h 0 %
17:00:00 overcast clouds 25.650 25.650 25.650 14 5.79 m/h 0 %
20:00:00 broken clouds 22.310 22.310 22.310 19 1.48 m/h 0 %
23:00:00 broken clouds 19.980 19.980 19.980 23 1.05 m/h 0 %
13-Apr-2020 (Mon)
02:00:00 clear sky 18.260 18.260 18.260 19 3.42 m/h 0 %
05:00:00 few clouds 15.800 15.800 15.800 22 1.25 m/h 0 %
08:00:00 few clouds 18.400 18.400 18.400 17 1.63 m/h 0 %
11:00:00 clear sky 22.700 22.700 22.700 12 3.42 m/h 0 %
14:00:00 clear sky 25.230 25.230 25.230 11 4.29 m/h 0 %
17:00:00 clear sky 24.580 24.580 24.580 13 3.99 m/h 0 %
20:00:00 scattered clouds 21.720 21.720 21.720 20 2.5 m/h 0 %
23:00:00 broken clouds 19.760 19.760 19.760 24 1.85 m/h 0 %
14-Apr-2020 (Tue)
02:00:00 overcast clouds 18.120 18.120 18.120 26 5.83 m/h 0 %

Famous Cities (61)